createdAt,value
2023-06-08T00:01:45.251Z,15.75
2023-06-08T00:04:14.128Z,16.37
2023-06-08T00:06:42.102Z,16.35
2023-06-08T00:09:10.705Z,15.61
2023-06-08T00:11:40.699Z,16.40
2023-06-08T00:14:07.330Z,16.40
2023-06-08T00:16:36.119Z,16.40
2023-06-08T00:19:03.659Z,16.03
2023-06-08T00:21:34.521Z,15.88
2023-06-08T00:24:01.877Z,15.51
2023-06-08T00:26:28.928Z,15.92
2023-06-08T00:28:56.010Z,14.98
2023-06-08T00:31:23.080Z,16.04
2023-06-08T00:33:50.058Z,16.15
2023-06-08T00:36:18.690Z,15.70
2023-06-08T00:38:48.121Z,15.79
2023-06-08T00:41:15.107Z,16.13
2023-06-08T00:43:46.053Z,15.49
2023-06-08T00:46:15.452Z,16.19
2023-06-08T00:48:43.249Z,16.21
2023-06-08T00:51:12.681Z,16.26
2023-06-08T00:53:39.834Z,15.30
2023-06-08T00:56:08.803Z,16.05
2023-06-08T00:58:38.562Z,16.08
2023-06-08T01:01:12.553Z,15.42
2023-06-08T01:03:40.141Z,15.42
2023-06-08T01:06:09.414Z,15.55
2023-06-08T01:09:08.094Z,16.00
2023-06-08T01:11:57.008Z,15.30
2023-06-08T01:14:57.172Z,15.38
2023-06-08T01:17:42.627Z,16.04
2023-06-08T01:20:18.219Z,16.09
2023-06-08T01:22:57.645Z,16.07
2023-06-08T01:25:31.571Z,15.99
2023-06-08T01:28:13.478Z,15.89
2023-06-08T01:30:50.474Z,15.83
2023-06-08T01:33:24.195Z,15.49
2023-06-08T01:36:06.047Z,15.89
2023-06-08T01:38:46.506Z,15.79
2023-06-08T01:41:22.010Z,15.81
2023-06-08T01:43:51.636Z,15.44
2023-06-08T01:46:21.495Z,15.67
2023-06-08T01:48:50.637Z,15.28
2023-06-08T01:51:19.895Z,15.15
2023-06-08T01:53:47.071Z,15.71
2023-06-08T01:56:15.222Z,15.38
2023-06-08T01:58:42.251Z,15.52
2023-06-08T02:01:09.351Z,15.78
2023-06-08T02:03:36.539Z,15.78
2023-06-08T02:06:03.474Z,14.81
2023-06-08T02:08:33.246Z,15.77
2023-06-08T02:11:00.198Z,15.67
2023-06-08T02:13:27.161Z,15.78
2023-06-08T02:15:54.881Z,15.73
2023-06-08T02:18:22.715Z,15.67
2023-06-08T02:20:49.528Z,14.91
2023-06-08T02:23:16.651Z,15.64
2023-06-08T02:25:43.605Z,15.66
2023-06-08T02:28:10.768Z,15.47
2023-06-08T02:30:37.862Z,14.96
2023-06-08T02:33:04.914Z,15.25
2023-06-08T02:35:31.977Z,14.50
2023-06-08T02:37:59.394Z,15.65
2023-06-08T02:40:26.823Z,15.73
2023-06-08T02:42:54.037Z,15.76
2023-06-08T02:45:24.185Z,15.80
2023-06-08T02:47:51.166Z,15.50
2023-06-08T02:50:18.127Z,15.84
2023-06-08T02:52:45.084Z,15.85
2023-06-08T02:55:12.085Z,15.76
2023-06-08T02:57:40.190Z,15.89
2023-06-08T03:00:13.976Z,15.78
2023-06-08T03:02:57.037Z,15.99
2023-06-08T03:05:25.262Z,15.99
2023-06-08T03:07:54.229Z,14.98
2023-06-08T03:10:21.616Z,15.68
2023-06-08T03:12:48.550Z,15.81
2023-06-08T03:15:24.311Z,16.04
2023-06-08T03:17:57.225Z,16.02
2023-06-08T03:20:24.338Z,15.79
2023-06-08T03:22:59.557Z,15.84
2023-06-08T03:25:29.710Z,15.89
2023-06-08T03:27:56.846Z,15.82
2023-06-08T03:30:23.832Z,15.00
2023-06-08T03:32:54.190Z,15.90
2023-06-08T03:35:54.473Z,16.22
2023-06-08T03:38:34.837Z,16.08
2023-06-08T03:41:05.531Z,16.24
2023-06-08T03:43:32.927Z,15.78
2023-06-08T03:46:00.016Z,16.32
2023-06-08T03:48:27.756Z,15.86
2023-06-08T03:50:56.790Z,15.85
2023-06-08T03:53:25.303Z,15.57
2023-06-08T03:55:52.257Z,15.76
2023-06-08T03:58:19.357Z,16.25
2023-06-08T04:00:47.123Z,16.32
2023-06-08T04:03:15.745Z,15.93
2023-06-08T04:05:43.039Z,16.44
2023-06-08T04:08:10.132Z,15.35
2023-06-08T04:10:37.328Z,16.49
2023-06-08T04:13:04.194Z,16.55
2023-06-08T04:15:32.176Z,16.50
2023-06-08T04:17:59.461Z,15.83
2023-06-08T04:20:28.152Z,16.63
2023-06-08T04:22:57.660Z,16.58
2023-06-08T04:25:28.519Z,16.86
2023-06-08T04:27:56.292Z,16.44
2023-06-08T04:30:23.530Z,16.92
2023-06-08T04:32:50.889Z,16.40
2023-06-08T04:35:19.170Z,16.97
2023-06-08T04:37:46.406Z,16.78
2023-06-08T04:40:13.532Z,17.05
2023-06-08T04:42:42.642Z,17.07
2023-06-08T04:45:12.531Z,17.00
2023-06-08T04:47:43.316Z,17.01
2023-06-08T04:50:11.196Z,17.14
2023-06-08T04:52:42.095Z,17.27
2023-06-08T04:55:14.167Z,17.31
2023-06-08T04:57:42.980Z,17.42
2023-06-08T05:00:11.424Z,16.82
2023-06-08T05:02:39.166Z,17.61
2023-06-08T05:05:06.923Z,17.44
2023-06-08T05:07:34.315Z,17.22
2023-06-08T05:10:02.122Z,17.42
2023-06-08T05:12:29.156Z,17.64
2023-06-08T05:14:56.403Z,17.82
2023-06-08T05:17:23.676Z,18.13
2023-06-08T05:19:51.789Z,18.16
2023-06-08T05:22:18.770Z,18.13
2023-06-08T05:24:45.599Z,17.98
2023-06-08T05:27:12.439Z,18.63
2023-06-08T05:29:39.991Z,18.59
2023-06-08T05:32:08.249Z,18.50
2023-06-08T05:34:35.202Z,18.71
2023-06-08T05:37:02.071Z,18.88
2023-06-08T05:39:29.110Z,18.99
2023-06-08T05:41:55.826Z,18.60
2023-06-08T05:44:22.765Z,17.59
2023-06-08T05:46:50.665Z,18.91
2023-06-08T05:49:17.683Z,18.86
2023-06-08T05:51:44.751Z,19.03
2023-06-08T05:54:11.720Z,19.15
2023-06-08T05:56:38.528Z,19.05
2023-06-08T05:59:05.352Z,19.36
2023-06-08T06:01:32.438Z,19.39
2023-06-08T06:03:59.645Z,19.35
2023-06-08T06:06:26.452Z,19.48
2023-06-08T06:08:53.305Z,18.68
2023-06-08T06:11:20.172Z,19.57
2023-06-08T06:13:46.864Z,19.70
2023-06-08T06:16:17.359Z,19.34
2023-06-08T06:18:48.060Z,19.84
2023-06-08T06:21:15.262Z,19.08
2023-06-08T06:23:42.244Z,19.90
2023-06-08T06:26:10.009Z,20.17
2023-06-08T06:28:37.009Z,20.11
2023-06-08T06:31:05.345Z,19.94
2023-06-08T06:33:32.042Z,20.32
2023-06-08T06:35:58.972Z,20.46
2023-06-08T06:38:26.184Z,20.44
2023-06-08T06:40:53.969Z,20.52
2023-06-08T06:43:22.439Z,20.69
2023-06-08T06:46:04.125Z,20.67
2023-06-08T06:48:31.641Z,20.72
2023-06-08T06:50:58.913Z,20.80
2023-06-08T06:53:25.656Z,20.70
2023-06-08T06:55:52.492Z,20.91
2023-06-08T06:58:20.568Z,20.80
2023-06-08T07:00:47.378Z,20.82
2023-06-08T07:03:14.258Z,21.19
2023-06-08T07:05:41.149Z,21.38
2023-06-08T07:08:07.931Z,21.27
2023-06-08T07:11:02.540Z,21.68
2023-06-08T07:13:30.158Z,21.98
2023-06-08T07:16:09.121Z,21.95
2023-06-08T07:18:46.150Z,21.84
2023-06-08T07:21:13.165Z,21.99
2023-06-08T07:27:12.137Z,22.21
2023-06-08T07:29:39.277Z,21.16
2023-06-08T07:32:06.577Z,22.13
2023-06-08T07:34:33.357Z,22.54
2023-06-08T07:37:00.181Z,22.31
2023-06-08T07:39:26.971Z,22.16
2023-06-08T07:41:53.775Z,22.72
2023-06-08T07:44:20.605Z,22.75
2023-06-08T07:46:47.608Z,22.84
2023-06-08T07:49:14.597Z,22.48
2023-06-08T07:51:41.416Z,23.02
2023-06-08T07:54:08.205Z,23.18
2023-06-08T07:56:35.412Z,23.25
2023-06-08T07:59:02.147Z,23.11
2023-06-08T08:01:29.056Z,22.92
2023-06-08T08:03:55.978Z,22.78
2023-06-08T08:06:22.894Z,22.77
2023-06-08T08:08:49.686Z,22.84
2023-06-08T08:11:16.439Z,21.82
2023-06-08T08:13:43.442Z,23.15
2023-06-08T08:16:10.349Z,23.54
2023-06-08T08:18:37.488Z,23.55
2023-06-08T08:21:04.699Z,23.65
2023-06-08T08:23:40.170Z,23.89
2023-06-08T08:26:14.343Z,24.06
2023-06-08T08:28:45.999Z,23.87
2023-06-08T08:31:22.693Z,23.99
2023-06-08T08:33:53.254Z,23.99
2023-06-08T08:36:20.017Z,23.29
2023-06-08T08:38:47.211Z,24.49
2023-06-08T08:41:18.451Z,24.74
2023-06-08T08:43:53.185Z,24.82
2023-06-08T08:46:23.435Z,25.10
2023-06-08T08:48:58.305Z,24.50
2023-06-08T08:51:26.970Z,24.44
2023-06-08T08:53:54.173Z,24.67
2023-06-08T08:56:22.538Z,25.22
2023-06-08T08:58:52.989Z,24.88
2023-06-08T09:01:20.584Z,25.13
2023-06-08T09:03:47.843Z,25.51
2023-06-08T09:06:14.946Z,24.94
2023-06-08T09:08:42.322Z,25.84
2023-06-08T09:11:11.354Z,25.88
2023-06-08T09:13:42.433Z,26.07
2023-06-08T09:16:11.172Z,26.08
2023-06-08T09:18:38.415Z,25.75
2023-06-08T09:21:23.321Z,25.69
2023-06-08T09:24:11.534Z,26.29
2023-06-08T09:26:49.188Z,26.37
2023-06-08T09:29:42.213Z,26.79
2023-06-08T09:32:11.255Z,26.74
2023-06-08T09:34:52.478Z,26.57
2023-06-08T09:37:20.365Z,26.45
2023-06-08T09:39:47.629Z,26.61
2023-06-08T09:42:14.620Z,26.74
2023-06-08T09:44:41.651Z,27.02
2023-06-08T09:47:26.603Z,26.73
2023-06-08T09:49:55.361Z,26.57
2023-06-08T09:52:24.518Z,26.66
2023-06-08T09:54:52.784Z,27.17
2023-06-08T09:57:21.853Z,27.70
2023-06-08T10:00:18.657Z,27.79
2023-06-08T10:03:10.926Z,28.25
2023-06-08T10:05:41.918Z,28.01
2023-06-08T10:08:10.247Z,28.24
2023-06-08T10:10:38.855Z,28.31
2023-06-08T10:13:06.970Z,28.40
2023-06-08T10:15:34.835Z,28.26
2023-06-08T10:18:02.663Z,28.46
2023-06-08T10:20:31.075Z,28.19
2023-06-08T10:23:02.116Z,28.29
2023-06-08T10:25:31.647Z,28.22
2023-06-08T10:28:09.849Z,28.10
2023-06-08T10:30:41.690Z,27.84
2023-06-08T10:33:25.397Z,28.16
2023-06-08T10:39:01.122Z,28.33
2023-06-08T10:41:53.839Z,28.90
2023-06-08T10:44:36.727Z,29.17
2023-06-08T10:47:13.096Z,28.67
2023-06-08T10:49:45.262Z,29.94
2023-06-08T10:52:19.084Z,30.24
2023-06-08T10:54:59.605Z,30.16
2023-06-08T10:57:36.196Z,29.51
2023-06-08T11:00:27.095Z,29.91
2023-06-08T11:02:55.536Z,30.66
2023-06-08T11:05:23.951Z,31.63
2023-06-08T11:07:54.148Z,31.07
2023-06-08T11:10:22.052Z,30.99
2023-06-08T11:12:48.722Z,32.10
2023-06-08T11:15:16.300Z,33.64
2023-06-08T11:17:45.901Z,34.23
2023-06-08T11:20:14.949Z,34.91
2023-06-08T11:22:41.874Z,36.77
2023-06-08T11:25:09.467Z,36.58
2023-06-08T11:27:45.698Z,38.25
2023-06-08T11:30:23.561Z,41.48
2023-06-08T11:32:52.127Z,42.29
2023-06-08T11:35:20.570Z,43.59
2023-06-08T11:37:50.473Z,44.86
2023-06-08T11:40:18.015Z,44.57
2023-06-08T11:42:45.492Z,46.13
2023-06-08T11:45:13.294Z,47.16
2023-06-08T11:47:42.343Z,47.32
2023-06-08T11:50:11.104Z,46.66
2023-06-08T11:52:43.476Z,48.75
2023-06-08T11:55:17.113Z,49.60
2023-06-08T11:57:45.864Z,48.58
2023-06-08T12:00:19.338Z,49.08
2023-06-08T12:02:52.683Z,46.99
2023-06-08T12:05:26.160Z,47.88
2023-06-08T12:08:03.899Z,47.62
2023-06-08T12:10:39.040Z,46.76
2023-06-08T12:13:10.941Z,49.50
2023-06-08T12:15:41.177Z,49.65
2023-06-08T12:18:11.027Z,50.30
2023-06-08T12:20:39.131Z,51.93
2023-06-08T12:23:06.683Z,52.94
2023-06-08T12:25:34.114Z,51.41
2023-06-08T12:28:01.357Z,50.66
2023-06-08T12:30:28.389Z,50.48
2023-06-08T12:32:56.884Z,49.92
2023-06-08T12:35:25.156Z,46.87
2023-06-08T12:37:52.413Z,41.53
2023-06-08T12:40:22.413Z,37.36
2023-06-08T12:42:52.632Z,34.68
2023-06-08T12:45:21.056Z,33.19
2023-06-08T12:47:48.730Z,31.70
2023-06-08T12:50:18.352Z,31.29
2023-06-08T12:52:45.959Z,30.98
2023-06-08T12:55:13.006Z,30.94
2023-06-08T12:57:39.851Z,30.63
2023-06-08T13:00:08.753Z,30.00
2023-06-08T13:02:35.715Z,29.64
2023-06-08T13:05:02.657Z,29.31
2023-06-08T13:07:30.114Z,29.16
2023-06-08T13:09:56.958Z,29.20
2023-06-08T13:12:25.792Z,29.47
2023-06-08T13:14:53.201Z,28.22
2023-06-08T13:17:20.190Z,29.40
2023-06-08T13:19:47.663Z,28.22
2023-06-08T13:22:14.565Z,28.91
2023-06-08T13:24:42.657Z,28.53
2023-06-08T13:27:10.465Z,28.35
2023-06-08T13:29:39.883Z,28.23
2023-06-08T13:32:07.923Z,26.62
2023-06-08T13:34:36.431Z,27.71
2023-06-08T13:37:03.326Z,26.90
2023-06-08T13:39:30.312Z,27.26
2023-06-08T13:41:58.120Z,26.96
2023-06-08T13:44:26.355Z,26.40
2023-06-08T13:46:54.325Z,27.50
2023-06-08T13:49:21.255Z,28.21
2023-06-08T13:51:48.912Z,28.38
2023-06-08T13:54:18.981Z,28.79
2023-06-08T13:56:47.050Z,29.12
2023-06-08T13:59:13.944Z,29.34
2023-06-08T14:01:41.162Z,29.85
2023-06-08T14:04:08.270Z,29.75
2023-06-08T14:06:35.512Z,29.94
2023-06-08T14:09:04.013Z,29.46
2023-06-08T14:11:30.905Z,29.62
2023-06-08T14:13:58.434Z,29.62
2023-06-08T14:16:28.308Z,29.04
2023-06-08T14:18:58.465Z,29.03
2023-06-08T14:21:25.446Z,28.59
2023-06-08T14:23:54.359Z,28.54
2023-06-08T14:26:22.555Z,28.59
2023-06-08T14:28:49.278Z,28.26
2023-06-08T14:31:16.033Z,28.46
2023-06-08T14:33:43.081Z,28.32
2023-06-08T14:36:09.878Z,27.94
2023-06-08T14:38:36.672Z,28.04
2023-06-08T14:41:03.597Z,27.01
2023-06-08T14:43:30.504Z,27.85
2023-06-08T14:45:57.316Z,27.52
2023-06-08T14:48:24.436Z,28.11
2023-06-08T14:50:51.221Z,28.21
2023-06-08T14:53:18.016Z,27.96
2023-06-08T14:55:44.790Z,27.86
2023-06-08T14:58:11.674Z,27.68
2023-06-08T15:00:38.463Z,27.61
2023-06-08T15:03:05.571Z,27.43
2023-06-08T15:05:32.639Z,26.64
2023-06-08T15:07:59.662Z,26.95
2023-06-08T15:10:26.443Z,26.39
2023-06-08T15:12:53.330Z,26.55
2023-06-08T15:15:20.690Z,26.58
2023-06-08T15:17:47.514Z,25.73
2023-06-08T15:20:15.621Z,26.40
2023-06-08T15:22:42.970Z,26.31
2023-06-08T15:25:10.846Z,26.01
2023-06-08T15:27:38.099Z,25.63
2023-06-08T15:30:06.573Z,25.56
2023-06-08T15:32:36.847Z,26.17
2023-06-08T15:35:06.967Z,26.13
2023-06-08T15:37:35.107Z,26.04
2023-06-08T15:40:03.291Z,25.81
2023-06-08T15:42:30.157Z,26.02
2023-06-08T15:44:57.389Z,25.74
2023-06-08T15:47:24.647Z,25.91
2023-06-08T15:49:51.406Z,25.42
2023-06-08T15:52:22.078Z,25.74
2023-06-08T15:54:49.507Z,25.66
2023-06-08T15:57:17.867Z,25.67
2023-06-08T15:59:48.187Z,25.50
2023-06-08T16:02:16.374Z,25.79
2023-06-08T16:04:43.361Z,25.24
2023-06-08T16:07:10.284Z,25.27
2023-06-08T16:09:37.411Z,25.41
2023-06-08T16:12:04.762Z,25.36
2023-06-08T16:14:31.766Z,24.53
2023-06-08T16:16:58.867Z,24.94
2023-06-08T16:19:26.824Z,25.47
2023-06-08T16:21:59.884Z,25.39
2023-06-08T16:24:30.855Z,25.31
2023-06-08T16:27:00.268Z,25.24
2023-06-08T16:29:27.436Z,25.17
2023-06-08T16:31:55.330Z,25.14
2023-06-08T16:34:23.124Z,25.11
2023-06-08T16:36:50.955Z,25.12
2023-06-08T16:39:17.760Z,25.07
2023-06-08T16:41:50.735Z,24.89
2023-06-08T16:44:26.213Z,25.05
2023-06-08T16:46:55.308Z,25.07
2023-06-08T16:49:22.341Z,24.86
2023-06-08T16:51:49.469Z,24.74
2023-06-08T16:54:16.646Z,24.83
2023-06-08T16:56:43.745Z,24.85
2023-06-08T16:59:13.392Z,24.79
2023-06-08T17:01:42.335Z,24.77
2023-06-08T17:04:09.459Z,24.52
2023-06-08T17:06:37.298Z,24.70
2023-06-08T17:09:04.430Z,24.64
2023-06-08T17:11:32.285Z,24.67
2023-06-08T17:13:59.961Z,24.76
2023-06-08T17:16:29.006Z,24.76
2023-06-08T17:18:56.187Z,24.71
2023-06-08T17:21:23.119Z,23.02
2023-06-08T17:23:56.568Z,23.81
2023-06-08T17:26:24.271Z,23.20
2023-06-08T17:28:52.612Z,22.82
2023-06-08T17:31:20.320Z,22.42
2023-06-08T17:33:47.444Z,21.76
2023-06-08T17:36:14.603Z,21.92
2023-06-08T17:38:41.565Z,21.70
2023-06-08T17:41:08.509Z,21.52
2023-06-08T17:43:49.016Z,21.62
2023-06-08T17:46:17.380Z,21.47
2023-06-08T17:48:44.948Z,21.38
2023-06-08T17:51:12.306Z,21.31
2023-06-08T17:53:39.169Z,20.54
2023-06-08T17:56:16.686Z,21.46
2023-06-08T17:58:43.851Z,21.22
2023-06-08T18:01:11.162Z,21.24
2023-06-08T18:03:40.126Z,21.19
2023-06-08T18:06:20.185Z,21.42
2023-06-08T18:08:52.305Z,21.35
2023-06-08T18:11:20.624Z,21.24
2023-06-08T18:13:48.175Z,21.13
2023-06-08T18:16:15.214Z,20.99
2023-06-08T18:18:42.542Z,20.56
2023-06-08T18:21:10.354Z,20.50
2023-06-08T18:23:37.344Z,20.25
2023-06-08T18:26:05.577Z,20.37
2023-06-08T18:28:33.073Z,20.24
2023-06-08T18:31:00.491Z,20.21
2023-06-08T18:33:27.571Z,20.31
2023-06-08T18:35:54.818Z,19.84
2023-06-08T18:38:22.547Z,20.48
2023-06-08T18:40:49.796Z,20.54
2023-06-08T18:43:16.894Z,20.61
2023-06-08T18:45:43.790Z,20.57
2023-06-08T18:48:13.003Z,20.56
2023-06-08T18:50:42.100Z,20.09
2023-06-08T18:53:09.175Z,20.82
2023-06-08T18:55:36.383Z,20.66
2023-06-08T18:58:03.504Z,20.73
2023-06-08T19:00:30.669Z,20.74
2023-06-08T19:02:58.231Z,20.87
2023-06-08T19:05:25.337Z,19.85
2023-06-08T19:07:52.272Z,20.57
2023-06-08T19:10:19.749Z,20.64
2023-06-08T19:12:46.940Z,20.01
2023-06-08T19:15:14.335Z,20.44
2023-06-08T19:17:41.525Z,20.39
2023-06-08T19:20:09.733Z,20.73
2023-06-08T19:22:38.910Z,20.81
2023-06-08T19:25:07.248Z,20.10
2023-06-08T19:27:34.814Z,21.08
2023-06-08T19:30:02.198Z,21.04
2023-06-08T19:32:29.390Z,21.22
2023-06-08T19:34:56.711Z,21.21
2023-06-08T19:37:23.679Z,21.13
2023-06-08T19:39:51.996Z,21.16
2023-06-08T19:42:22.606Z,21.38
2023-06-08T19:44:54.984Z,21.36
2023-06-08T19:48:12.876Z,21.36
2023-06-08T19:50:40.295Z,20.81
2023-06-08T19:53:07.299Z,21.25
2023-06-08T19:55:34.217Z,20.51
2023-06-08T19:58:01.639Z,21.05
2023-06-08T20:00:28.590Z,21.17
2023-06-08T20:02:55.721Z,20.86
2023-06-08T20:05:22.713Z,21.01
2023-06-08T20:07:50.078Z,20.97
2023-06-08T20:10:17.945Z,20.81
2023-06-08T20:12:51.117Z,20.84
2023-06-08T20:15:18.960Z,20.55
2023-06-08T20:17:52.075Z,20.76
2023-06-08T20:20:19.319Z,20.73
2023-06-08T20:22:46.363Z,20.38
2023-06-08T20:25:14.112Z,20.66
2023-06-08T20:27:41.337Z,20.34
2023-06-08T20:30:10.297Z,20.31
2023-06-08T20:32:38.204Z,20.39
2023-06-08T20:35:07.469Z,20.18
2023-06-08T20:37:35.489Z,20.52
2023-06-08T20:40:04.404Z,20.47
2023-06-08T20:42:32.210Z,20.40
2023-06-08T20:45:02.580Z,19.86
2023-06-08T20:47:31.307Z,19.78
2023-06-08T20:50:00.511Z,20.12
2023-06-08T20:52:27.605Z,19.75
2023-06-08T20:54:54.747Z,19.93
2023-06-08T20:57:21.728Z,20.04
2023-06-08T20:59:49.096Z,20.01
2023-06-08T21:02:16.240Z,19.31
2023-06-08T21:04:46.046Z,19.32
2023-06-08T21:07:13.241Z,19.45
2023-06-08T21:09:40.187Z,19.81
2023-06-08T21:12:07.832Z,19.93
2023-06-08T21:14:34.643Z,19.83
2023-06-08T21:17:01.565Z,19.46
2023-06-08T21:19:28.307Z,19.74
2023-06-08T21:21:55.032Z,19.67
2023-06-08T21:24:27.778Z,19.27
2023-06-08T21:26:56.570Z,19.49
2023-06-08T21:29:23.600Z,19.42
2023-06-08T21:31:50.671Z,19.36
2023-06-08T21:34:17.380Z,19.17
2023-06-08T21:36:44.422Z,18.57
2023-06-08T21:39:11.703Z,19.35
2023-06-08T21:41:38.564Z,18.73
2023-06-08T21:44:05.644Z,18.92
2023-06-08T21:46:33.668Z,19.24
2023-06-08T21:49:01.750Z,18.66
2023-06-08T21:51:28.986Z,19.00
2023-06-08T21:53:58.402Z,19.22
2023-06-08T21:56:27.653Z,19.15
2023-06-08T21:58:58.651Z,18.55
2023-06-08T22:01:25.681Z,19.08
2023-06-08T22:03:52.839Z,18.60
2023-06-08T22:06:21.559Z,18.93
2023-06-08T22:08:48.722Z,19.05
2023-06-08T22:11:19.654Z,19.03
2023-06-08T22:13:53.116Z,18.14
2023-06-08T22:16:21.602Z,18.63
2023-06-08T22:18:49.210Z,18.34
2023-06-08T22:21:19.631Z,18.77
2023-06-08T22:23:46.912Z,18.75
2023-06-08T22:26:14.494Z,18.29
2023-06-08T22:28:41.870Z,18.30
2023-06-08T22:31:08.992Z,17.58
2023-06-08T22:33:38.423Z,17.85
2023-06-08T22:36:07.503Z,18.64
2023-06-08T22:38:34.239Z,18.31
2023-06-08T22:41:02.484Z,18.69
2023-06-08T22:43:29.393Z,18.67
2023-06-08T22:45:56.455Z,18.15
2023-06-08T22:48:23.435Z,17.35
2023-06-08T22:50:50.360Z,18.16
2023-06-08T22:53:22.554Z,17.99
2023-06-08T22:55:50.647Z,18.70
2023-06-08T22:58:17.436Z,18.67
2023-06-08T23:00:45.326Z,18.60
2023-06-08T23:03:12.438Z,17.65
2023-06-08T23:05:39.639Z,17.40
2023-06-08T23:08:08.719Z,18.28
2023-06-08T23:10:35.556Z,18.40
2023-06-08T23:13:02.545Z,18.09
2023-06-08T23:15:31.859Z,18.46
2023-06-08T23:17:58.982Z,17.87
2023-06-08T23:20:26.422Z,17.89
2023-06-08T23:22:53.613Z,18.15
2023-06-08T23:25:20.655Z,18.31
2023-06-08T23:27:47.558Z,17.98
2023-06-08T23:30:14.722Z,17.64
2023-06-08T23:32:42.644Z,18.04
2023-06-08T23:35:10.990Z,17.65
2023-06-08T23:37:38.894Z,18.15
2023-06-08T23:40:09.017Z,18.04
2023-06-08T23:42:35.902Z,17.92
2023-06-08T23:45:03.611Z,17.54
2023-06-08T23:47:30.871Z,16.87
2023-06-08T23:49:57.947Z,17.86
2023-06-08T23:52:24.956Z,17.84
2023-06-08T23:54:52.059Z,17.78
2023-06-08T23:57:19.194Z,16.98
2023-06-08T23:59:46.179Z,17.79
